Time;durP1;ratioP1;P1;durP2;ratioP2;P2;SDS_P1;SDS_P2;PMS_P1;PMS_P2;Temp;Humidity;BMP_temperature;BMP_pressure;BME280_temperature;BME280_humidity;BME280_pressure;Samples;Min_cycle;Max_cycle;Signal;HPM_P1;HPM_P2
2022/03/25 00:00:24;;;;;;;8.73;4.40;;;;;;;3.58;43.40;101067.91;1775275;80;21135;-75
2022/03/25 00:02:52;;;;;;;9.35;4.78;;;;;;;3.55;43.34;101058.04;1775181;80;20960;-75
2022/03/25 00:05:20;;;;;;;12.73;5.03;;;;;;;3.52;43.76;101062.41;1775223;80;20924;-74
2022/03/25 00:07:47;;;;;;;11.15;5.25;;;;;;;3.51;44.36;101060.72;1776127;80;21366;-73
2022/03/25 00:10:16;;;;;;;20.97;9.20;;;;;;;3.44;44.70;101047.92;1775362;80;20963;-74
2022/03/25 00:12:43;;;;;;;20.90;9.65;;;;;;;3.36;44.94;101050.70;1775308;80;21485;-73
2022/03/25 00:15:11;;;;;;;23.67;10.63;;;;;;;3.31;45.00;101050.81;1775194;80;21411;-73
2022/03/25 00:17:39;;;;;;;22.80;10.85;;;;;;;3.23;45.07;101059.20;1775296;80;20893;-73
2022/03/25 00:20:07;;;;;;;22.22;9.60;;;;;;;3.14;45.43;101054.67;1775136;80;20861;-75
2022/03/25 00:22:37;;;;;;;17.15;8.10;;;;;;;3.07;45.54;101053.96;1775190;80;21418;-74
2022/03/25 00:25:06;;;;;;;18.17;9.28;;;;;;;3.03;45.82;101057.50;1775146;80;21687;-75
2022/03/25 00:27:33;;;;;;;15.72;8.03;;;;;;;3.01;46.55;101060.56;1775099;80;20979;-74
2022/03/25 00:30:02;;;;;;;15.70;9.00;;;;;;;2.97;46.59;101056.33;1775179;80;20865;-74
2022/03/25 00:32:29;;;;;;;18.50;9.05;;;;;;;2.91;46.97;101058.59;1775149;80;20909;-74
2022/03/25 00:34:56;;;;;;;32.75;14.47;;;;;;;2.87;46.92;101057.82;1777927;79;20948;-74
2022/03/25 00:37:25;;;;;;;33.33;16.57;;;;;;;2.81;46.84;101060.53;1775718;80;21278;-74
2022/03/25 00:39:52;;;;;;;66.82;28.80;;;;;;;2.79;47.08;101054.98;1775758;80;20975;-74
2022/03/25 00:42:20;;;;;;;24.18;12.58;;;;;;;2.77;47.08;101054.16;1775839;80;20876;-77
2022/03/25 00:44:48;;;;;;;33.60;13.83;;;;;;;2.75;47.48;101046.86;1775641;80;21411;-75
2022/03/25 00:48:02;;;;;;;23.80;11.93;;;;;;;2.74;47.82;101040.83;1799116;79;22475;-73
2022/03/25 00:50:30;;;;;;;19.30;9.15;;;;;;;2.61;48.05;101044.56;1758740;81;20897;-74
2022/03/25 00:52:58;;;;;;;13.45;7.70;;;;;;;2.51;48.46;101047.75;1758283;80;21045;-75
2022/03/25 00:55:25;;;;;;;21.05;10.38;;;;;;;2.41;48.91;101044.95;1758205;81;21022;-74
2022/03/25 00:57:53;;;;;;;27.60;13.88;;;;;;;2.34;49.34;101050.69;1758285;81;21393;-73
2022/03/25 01:00:22;;;;;;;22.27;11.60;;;;;;;2.27;49.22;101048.66;1758299;81;20900;-74
2022/03/25 01:02:49;;;;;;;45.10;24.37;;;;;;;2.20;49.10;101048.37;1758341;81;20947;-74
2022/03/25 01:05:17;;;;;;;35.03;17.55;;;;;;;2.14;48.80;101052.80;1758394;81;21254;-73
2022/03/25 01:07:45;;;;;;;25.88;13.38;;;;;;;2.07;48.91;101055.94;1739144;81;21445;-74
2022/03/25 01:10:13;;;;;;;28.45;12.28;;;;;;;2.03;49.20;101052.98;1758390;80;21284;-74
2022/03/25 01:12:42;;;;;;;25.90;12.33;;;;;;;2.01;49.36;101050.86;1758182;80;20892;-75
2022/03/25 01:15:10;;;;;;;24.40;11.45;;;;;;;2.02;49.62;101056.44;1758366;81;20849;-74
2022/03/25 01:17:37;;;;;;;21.00;12.43;;;;;;;1.95;49.96;101062.16;1758278;80;22174;-74
2022/03/25 01:20:07;;;;;;;18.57;10.55;;;;;;;1.92;50.25;101058.79;1758277;81;20999;-75
2022/03/25 01:22:35;;;;;;;25.27;10.35;;;;;;;1.92;50.60;101062.67;1758233;81;20939;-75
2022/03/25 01:25:04;;;;;;;22.42;12.68;;;;;;;1.90;50.76;101057.52;1758339;81;20963;-73
2022/03/25 01:27:31;;;;;;;24.45;13.20;;;;;;;1.88;51.23;101055.84;1758800;81;20951;-76
2022/03/25 01:29:59;;;;;;;21.02;11.73;;;;;;;1.89;50.64;101059.70;1758644;80;21090;-75
2022/03/25 01:32:26;;;;;;;19.32;10.10;;;;;;;1.87;50.27;101056.28;1758299;80;20987;-75
2022/03/25 01:34:54;;;;;;;18.10;9.65;;;;;;;1.85;50.25;101056.75;1758367;81;20927;-75
2022/03/25 01:37:23;;;;;;;18.52;9.23;;;;;;;1.81;50.69;101067.57;1758241;81;20857;-73
2022/03/25 01:39:50;;;;;;;15.20;9.08;;;;;;;1.74;50.95;101067.71;1758341;81;20932;-74
2022/03/25 01:42:31;;;;;;;16.40;8.03;;;;;;;1.66;51.46;101068.66;1758259;80;21139;-73
2022/03/25 01:44:59;;;;;;;17.02;9.73;;;;;;;1.64;51.72;101062.66;1758278;81;21437;-74
2022/03/25 01:47:30;;;;;;;16.77;9.63;;;;;;;1.58;52.00;101061.49;1749505;81;20885;-76
2022/03/25 01:49:58;;;;;;;19.42;10.20;;;;;;;1.53;52.00;101063.72;1745332;80;20932;-74
2022/03/25 01:52:25;;;;;;;22.27;9.25;;;;;;;1.49;52.24;101066.80;1745396;81;20987;-74
2022/03/25 01:54:54;;;;;;;13.98;8.05;;;;;;;1.40;51.85;101070.80;1745196;82;21240;-76
2022/03/25 01:57:25;;;;;;;15.30;8.15;;;;;;;1.30;52.08;101066.66;1745124;80;20869;-73
2022/03/25 01:59:55;;;;;;;14.80;8.35;;;;;;;1.24;52.30;101061.13;1744634;82;20917;-74
2022/03/25 02:02:23;;;;;;;26.10;8.98;;;;;;;1.22;52.60;101065.45;1744695;82;20913;-72
2022/03/25 02:04:51;;;;;;;14.53;7.70;;;;;;;1.16;52.35;101067.70;1745001;81;20881;-73
2022/03/25 02:07:18;;;;;;;19.87;8.13;;;;;;;1.14;52.28;101073.77;1744715;81;21426;-73
2022/03/25 02:09:49;;;;;;;12.65;7.03;;;;;;;1.15;52.57;101072.88;1709116;83;21413;-74
2022/03/25 02:12:18;;;;;;;13.70;7.33;;;;;;;1.19;52.70;101073.27;1709420;82;21505;-76
2022/03/25 02:14:45;;;;;;;13.40;7.97;;;;;;;1.26;52.92;101078.75;1708967;84;21417;-75
2022/03/25 02:17:15;;;;;;;14.83;8.33;;;;;;;1.29;52.95;101081.73;1708883;84;20844;-73
2022/03/25 02:19:43;;;;;;;13.53;8.13;;;;;;;1.31;52.90;101077.39;1708947;84;20926;-73
2022/03/25 02:22:14;;;;;;;17.07;8.43;;;;;;;1.30;52.92;101080.42;1744661;81;21406;-74
2022/03/25 02:24:41;;;;;;;15.75;8.10;;;;;;;1.21;52.88;101078.81;1744676;82;20920;-73
2022/03/25 02:27:08;;;;;;;18.98;8.80;;;;;;;1.11;53.12;101086.70;1744849;81;20995;-73
2022/03/25 02:29:38;;;;;;;15.83;7.75;;;;;;;0.98;53.49;101089.47;1687719;84;20984;-73
2022/03/25 02:32:07;;;;;;;12.30;7.37;;;;;;;0.92;53.89;101091.27;1708825;82;21672;-73
2022/03/25 02:34:34;;;;;;;17.23;8.43;;;;;;;0.90;54.04;101089.15;1708800;84;20956;-74
2022/03/25 02:37:01;;;;;;;14.23;7.15;;;;;;;0.91;54.03;101089.14;1708863;82;21386;-74
2022/03/25 02:39:30;;;;;;;12.47;6.40;;;;;;;0.90;54.25;101095.16;1708833;84;20932;-73
2022/03/25 02:41:57;;;;;;;16.05;7.35;;;;;;;0.85;54.18;101098.69;1708833;84;20979;-73
2022/03/25 02:44:24;;;;;;;22.13;8.83;;;;;;;0.82;54.00;101100.43;1734114;82;21141;-73
2022/03/25 02:46:52;;;;;;;13.32;6.30;;;;;;;0.80;54.29;101100.88;1744441;82;20857;-74
2022/03/25 02:49:21;;;;;;;18.12;7.67;;;;;;;0.85;54.42;101096.95;1744668;82;21375;-73
2022/03/25 02:51:48;;;;;;;12.70;6.03;;;;;;;0.92;54.54;101104.19;1744659;81;20949;-73
2022/03/25 02:54:15;;;;;;;13.30;6.78;;;;;;;0.95;54.28;101098.53;1744834;81;21019;-73
2022/03/25 02:56:42;;;;;;;14.35;7.47;;;;;;;1.00;54.32;101104.92;1745004;82;21386;-73
2022/03/25 02:59:09;;;;;;;11.38;7.00;;;;;;;1.05;54.29;101104.89;1744597;80;20853;-73
2022/03/25 03:01:37;;;;;;;14.60;7.80;;;;;;;1.05;54.02;101108.33;1744794;80;20921;-73
2022/03/25 03:04:04;;;;;;;14.33;7.95;;;;;;;1.03;54.10;101102.32;1744580;82;21454;-72
2022/03/25 03:06:31;;;;;;;15.65;7.87;;;;;;;0.99;54.28;101105.81;1745003;81;20889;-72
2022/03/25 03:08:58;;;;;;;14.00;7.97;;;;;;;0.95;54.50;101113.17;1744648;80;21518;-71
2022/03/25 03:11:28;;;;;;;12.20;7.42;;;;;;;0.92;54.71;101123.11;1744473;81;20917;-73
2022/03/25 03:13:56;;;;;;;12.58;7.90;;;;;;;0.93;54.94;101118.79;1744715;81;20917;-72
2022/03/25 03:16:23;;;;;;;13.72;7.85;;;;;;;0.91;55.02;101120.12;1744671;81;21406;-73
2022/03/25 03:18:50;;;;;;;24.12;8.58;;;;;;;0.92;55.26;101111.48;1734099;82;21024;-73
2022/03/25 03:21:23;;;;;;;17.37;8.58;;;;;;;0.93;55.47;101116.20;1744732;81;20968;-72
2022/03/25 03:23:48;;;;;;;15.60;10.00;;;;;;;0.93;55.61;101120.92;1744319;81;20980;-74
2022/03/25 03:26:16;;;;;;;20.85;10.98;;;;;;;0.92;55.42;101124.84;1744628;81;20901;-74
2022/03/25 03:28:44;;;;;;;17.80;9.60;;;;;;;0.90;55.26;101117.11;1744616;81;21475;-74
2022/03/25 03:31:11;;;;;;;21.60;9.88;;;;;;;0.89;55.27;101123.56;1744721;82;20849;-74
2022/03/25 03:33:39;;;;;;;24.85;13.78;;;;;;;0.90;55.14;101130.02;1744632;82;21556;-73
2022/03/25 03:36:06;;;;;;;21.37;8.95;;;;;;;0.91;54.93;101123.12;1744996;82;20928;-73
2022/03/25 03:38:34;;;;;;;21.17;8.95;;;;;;;0.93;55.32;101125.25;1744691;80;20960;-73
2022/03/25 03:41:01;;;;;;;15.48;7.30;;;;;;;0.91;55.58;101126.58;1744712;81;20893;-74
2022/03/25 03:43:29;;;;;;;15.88;8.53;;;;;;;0.89;55.68;101130.91;1687403;84;20931;-73
2022/03/25 03:45:58;;;;;;;16.32;7.85;;;;;;;0.83;55.45;101134.39;1708736;84;21062;-74
2022/03/25 03:48:25;;;;;;;16.30;8.65;;;;;;;0.81;55.48;101141.30;1714472;82;21221;-73
2022/03/25 03:50:52;;;;;;;19.87;7.50;;;;;;;0.80;55.59;101138.73;1716477;82;20931;-73
2022/03/25 03:53:20;;;;;;;15.30;7.95;;;;;;;0.80;55.68;101137.02;1716393;83;21342;-73
2022/03/25 03:55:48;;;;;;;13.78;7.97;;;;;;;0.78;55.56;101138.77;1716430;82;20935;-74
2022/03/25 03:58:16;;;;;;;16.65;8.33;;;;;;;0.78;55.69;101140.06;1716420;82;21675;-72
2022/03/25 04:00:43;;;;;;;17.55;7.95;;;;;;;0.78;55.75;101146.52;1716553;82;20872;-73
2022/03/25 04:03:12;;;;;;;19.17;9.33;;;;;;;0.81;55.84;101141.30;1716520;83;20887;-74
2022/03/25 04:05:38;;;;;;;16.45;8.80;;;;;;;0.83;55.84;101137.42;1716774;83;20991;-74
2022/03/25 04:08:08;;;;;;;22.80;9.45;;;;;;;0.83;56.01;101144.72;1716464;83;20928;-74
2022/03/25 04:10:35;;;;;;;18.07;9.03;;;;;;;0.82;56.23;101150.77;1716353;83;21263;-74
2022/03/25 04:13:03;;;;;;;15.98;8.63;;;;;;;0.84;56.38;101145.56;1716411;82;20876;-73
2022/03/25 04:15:31;;;;;;;19.35;8.20;;;;;;;0.88;56.38;101149.83;1716365;83;20856;-73
2022/03/25 04:17:58;;;;;;;19.90;7.75;;;;;;;0.93;56.23;101149.33;1716823;82;20919;-73
2022/03/25 04:20:27;;;;;;;15.75;8.10;;;;;;;0.98;56.06;101150.59;1716523;82;20920;-74
2022/03/25 04:22:54;;;;;;;23.42;9.25;;;;;;;1.06;56.25;101157.80;1716616;82;21600;-73
2022/03/25 04:25:22;;;;;;;19.07;9.60;;;;;;;1.17;56.24;101158.52;1716873;82;21003;-73
2022/03/25 04:27:55;;;;;;;17.87;8.68;;;;;;;1.31;55.86;101157.08;1716428;83;20935;-73
2022/03/25 04:30:27;;;;;;;16.10;8.35;;;;;;;1.42;55.63;101162.07;1716372;83;20868;-74
2022/03/25 04:32:55;;;;;;;19.00;9.83;;;;;;;1.54;55.44;101155.91;1715917;83;21362;-74
2022/03/25 04:35:23;;;;;;;16.93;7.80;;;;;;;1.66;55.60;101163.02;1716916;83;21069;-74
2022/03/25 04:37:52;;;;;;;27.32;11.10;;;;;;;1.81;55.24;101162.39;1716296;82;21001;-74
2022/03/25 04:40:20;;;;;;;23.80;9.83;;;;;;;1.97;54.96;101169.03;1752487;81;20900;-74
2022/03/25 04:42:48;;;;;;;24.05;9.93;;;;;;;2.14;54.47;101168.77;1752628;82;20936;-75
2022/03/25 04:45:17;;;;;;;19.77;9.73;;;;;;;2.32;54.09;101169.35;1752606;82;20899;-75
2022/03/25 04:47:44;;;;;;;22.50;10.32;;;;;;;2.51;53.70;101166.83;1753446;81;21136;-73
2022/03/25 04:50:12;;;;;;;15.48;9.48;;;;;;;2.77;53.29;101172.84;1757839;81;20892;-73
2022/03/25 04:52:39;;;;;;;19.87;9.73;;;;;;;3.09;52.62;101166.16;1758002;81;20884;-74
2022/03/25 04:55:11;;;;;;;17.00;9.70;;;;;;;3.41;51.68;101175.03;1757844;81;21482;-74
2022/03/25 04:57:40;;;;;;;22.00;10.93;;;;;;;3.76;50.94;101178.15;1757978;80;21077;-74
2022/03/25 05:00:10;;;;;;;20.88;9.73;;;;;;;4.22;50.35;101179.63;1758196;81;21083;-73
2022/03/25 05:02:37;;;;;;;18.30;12.23;;;;;;;4.73;49.22;101179.19;1757986;81;20932;-74
2022/03/25 05:05:06;;;;;;;29.20;15.75;;;;;;;5.29;48.13;101178.52;1757857;81;20896;-76
2022/03/25 05:07:34;;;;;;;26.87;15.43;;;;;;;5.81;46.80;101180.00;1757987;81;21025;-73
2022/03/25 05:10:02;;;;;;;25.82;15.63;;;;;;;6.31;45.77;101184.50;1757922;81;21354;-75
2022/03/25 05:12:31;;;;;;;33.85;17.77;;;;;;;6.80;44.94;101182.81;1757870;81;20907;-74
2022/03/25 05:14:58;;;;;;;26.73;16.23;;;;;;;7.27;44.06;101184.19;1757770;81;20944;-75
2022/03/25 05:17:25;;;;;;;25.85;15.18;;;;;;;7.76;43.32;101194.48;1757833;80;20980;-75
2022/03/25 05:19:53;;;;;;;30.05;15.65;;;;;;;8.24;42.46;101196.91;1758014;81;20920;-76
2022/03/25 05:22:22;;;;;;;23.77;14.65;;;;;;;8.67;41.96;101199.52;1757890;81;21315;-76
2022/03/25 05:24:51;;;;;;;25.72;14.60;;;;;;;9.10;41.28;101191.96;1757891;81;21732;-75
2022/03/25 05:27:17;;;;;;;24.43;14.15;;;;;;;9.52;40.58;101197.48;1758143;81;20908;-75
2022/03/25 05:29:45;;;;;;;31.93;14.85;;;;;;;9.86;39.84;101196.35;1757844;81;20912;-76
2022/03/25 05:32:12;;;;;;;24.12;14.20;;;;;;;10.21;39.12;101202.51;1757757;81;20916;-75
2022/03/25 05:34:39;;;;;;;24.90;13.88;;;;;;;10.53;38.55;101206.64;1758050;81;21476;-74
2022/03/25 05:37:06;;;;;;;23.55;13.85;;;;;;;10.79;38.17;101210.09;1757918;81;21529;-75
2022/03/25 05:39:34;;;;;;;21.15;10.70;;;;;;;11.12;38.17;101209.75;1757850;81;20857;-76
2022/03/25 05:42:00;;;;;;;20.75;9.68;;;;;;;11.45;36.39;101214.97;1758460;81;20880;-75
2022/03/25 05:44:27;;;;;;;19.52;9.88;;;;;;;11.76;34.62;101210.64;1758137;80;20984;-74
2022/03/25 05:46:54;;;;;;;14.18;8.70;;;;;;;12.08;33.04;101216.77;1758092;81;20919;-76
2022/03/25 05:49:22;;;;;;;19.98;9.78;;;;;;;12.33;32.92;101211.41;1746660;80;21111;-76
2022/03/25 05:51:48;;;;;;;26.60;9.70;;;;;;;12.62;32.46;101214.97;1744615;82;20924;-75
2022/03/25 05:54:16;;;;;;;19.42;9.23;;;;;;;13.00;31.38;101215.78;1744728;81;20984;-74
2022/03/25 05:56:43;;;;;;;25.17;9.83;;;;;;;13.26;31.19;101217.66;1745022;81;20952;-75
2022/03/25 05:59:10;;;;;;;20.37;9.68;;;;;;;13.61;30.55;101223.05;1744811;81;20885;-74
2022/03/25 06:01:38;;;;;;;15.08;9.58;;;;;;;13.61;30.55;101223.05;1744723;81;21185;-75
2022/03/25 06:04:05;;;;;;;19.65;9.00;;;;;;;13.82;29.96;101224.77;1744537;80;21108;-75
2022/03/25 06:06:32;;;;;;;18.57;9.03;;;;;;;14.02;29.77;101223.01;1744659;80;21394;-75
2022/03/25 06:08:59;;;;;;;20.32;9.80;;;;;;;14.24;29.84;101228.22;1744559;81;21335;-74
2022/03/25 06:11:26;;;;;;;13.03;8.13;;;;;;;14.53;29.28;101232.88;1745107;81;20881;-75
2022/03/25 06:13:53;;;;;;;13.45;7.12;;;;;;;14.74;28.66;101233.28;1744607;82;21556;-75
2022/03/25 06:16:21;;;;;;;13.78;6.67;;;;;;;14.91;28.17;101240.87;1744648;81;20893;-75
2022/03/25 06:18:50;;;;;;;13.35;7.20;;;;;;;14.99;27.86;101247.45;1745116;81;20948;-74
2022/03/25 06:21:17;;;;;;;11.57;7.00;;;;;;;15.13;27.69;101245.53;1744830;82;20988;-76
2022/03/25 06:23:46;;;;;;;12.13;7.00;;;;;;;15.34;27.33;101252.45;1744886;81;20991;-75
2022/03/25 06:26:15;;;;;;;17.25;7.70;;;;;;;15.48;27.13;101259.41;1745303;81;21120;-74
2022/03/25 06:28:44;;;;;;;14.58;7.55;;;;;;;15.61;27.13;101258.55;1744803;81;21379;-75
2022/03/25 06:31:11;;;;;;;18.10;8.23;;;;;;;15.83;26.71;101260.06;1744838;81;21398;-75
2022/03/25 06:33:39;;;;;;;15.98;7.95;;;;;;;15.97;26.66;101262.19;1744548;81;21458;-75
2022/03/25 06:36:07;;;;;;;22.17;9.10;;;;;;;16.01;26.64;101269.79;1744536;81;20976;-74
2022/03/25 06:38:34;;;;;;;16.80;7.87;;;;;;;16.15;26.44;101274.91;1744696;81;21427;-75
2022/03/25 06:41:02;;;;;;;22.98;7.33;;;;;;;16.30;26.08;101276.92;1744598;82;20889;-76
2022/03/25 06:43:29;;;;;;;20.32;7.03;;;;;;;16.40;25.92;101281.05;1744551;82;20917;-76
2022/03/25 06:45:58;;;;;;;14.95;7.58;;;;;;;16.51;25.58;101275.80;1744749;81;21378;-74
2022/03/25 06:48:26;;;;;;;13.62;8.30;;;;;;;16.53;25.48;101281.82;1744659;82;21015;-76
2022/03/25 06:50:53;;;;;;;14.18;7.97;;;;;;;16.61;25.33;101284.37;1744621;80;21245;-74
2022/03/25 06:53:21;;;;;;;11.48;6.78;;;;;;;16.65;25.31;101285.83;1744844;82;20889;-75
2022/03/25 06:55:48;;;;;;;16.77;7.17;;;;;;;16.76;25.44;101285.41;1744834;82;20917;-74
2022/03/25 06:58:16;;;;;;;9.20;6.28;;;;;;;16.99;25.24;101292.96;1744563;82;21090;-75
2022/03/25 07:00:43;;;;;;;10.82;6.10;;;;;;;17.21;25.15;101299.27;1745070;81;20901;-75
2022/03/25 07:03:11;;;;;;;10.43;7.05;;;;;;;17.35;25.14;101297.70;1744521;81;21251;-75
2022/03/25 07:05:39;;;;;;;12.85;6.12;;;;;;;17.59;24.78;101298.09;1744639;82;20932;-76
2022/03/25 07:08:09;;;;;;;11.12;6.65;;;;;;;17.78;24.38;101298.30;1744659;82;21121;-75
2022/03/25 07:10:38;;;;;;;13.60;6.00;;;;;;;17.91;24.50;101307.98;1744921;81;20909;-74
2022/03/25 07:13:07;;;;;;;11.50;6.78;;;;;;;17.97;24.20;101307.49;1744540;81;20944;-74
2022/03/25 07:15:34;;;;;;;15.38;6.65;;;;;;;18.04;24.07;101311.83;1744598;81;21144;-75
2022/03/25 07:18:03;;;;;;;10.25;5.72;;;;;;;17.96;24.21;101306.66;1744697;80;21482;-75
2022/03/25 07:20:30;;;;;;;18.98;6.45;;;;;;;18.00;23.96;101316.03;1744601;81;20893;-75
2022/03/25 07:23:00;;;;;;;13.90;6.53;;;;;;;18.10;24.08;101312.66;1744608;81;20940;-75
2022/03/25 07:25:29;;;;;;;15.38;6.80;;;;;;;18.23;24.06;101314.69;1734093;82;20936;-76
2022/03/25 07:27:58;;;;;;;12.55;6.15;;;;;;;18.49;24.01;101317.84;1744624;81;20933;-76
2022/03/25 07:30:25;;;;;;;16.50;5.47;;;;;;;18.70;23.43;101314.37;1744603;80;20846;-76
2022/03/25 07:32:53;;;;;;;12.30;5.50;;;;;;;18.82;23.40;101318.21;1744623;80;20893;-76
2022/03/25 07:35:21;;;;;;;10.25;4.90;;;;;;;18.97;23.01;101318.75;1744579;82;20901;-75
2022/03/25 07:37:48;;;;;;;11.85;4.53;;;;;;;19.07;22.97;101323.28;1744617;82;20973;-77
2022/03/25 07:40:15;;;;;;;8.53;4.33;;;;;;;19.20;22.93;101322.59;1744585;82;21390;-76
2022/03/25 07:42:44;;;;;;;10.20;4.70;;;;;;;19.36;22.67;101321.63;1744540;82;20994;-75
2022/03/25 07:45:13;;;;;;;11.03;4.35;;;;;;;19.57;22.16;101320.77;1744520;81;20865;-75
2022/03/25 07:47:46;;;;;;;7.55;4.12;;;;;;;19.53;22.30;101324.66;1744979;82;21490;-75
2022/03/25 07:50:18;;;;;;;9.33;4.70;;;;;;;19.53;22.53;101320.17;1744951;81;20932;-76
2022/03/25 07:52:47;;;;;;;16.70;4.20;;;;;;;19.67;22.41;101317.64;1744702;81;20958;-76
2022/03/25 07:55:16;;;;;;;12.30;4.90;;;;;;;19.97;22.54;101315.47;1744421;81;20932;-75
2022/03/25 07:57:43;;;;;;;10.93;5.37;;;;;;;20.25;22.06;101314.32;1744609;81;20904;-75
2022/03/25 08:00:11;;;;;;;13.20;5.37;;;;;;;20.44;21.89;101321.01;1744451;81;21018;-75
2022/03/25 08:02:41;;;;;;;11.83;4.70;;;;;;;20.70;21.63;101313.34;1744766;81;20972;-75
2022/03/25 08:05:10;;;;;;;7.80;4.30;;;;;;;20.99;21.35;101317.80;1744073;80;21242;-75
2022/03/25 08:07:48;;;;;;;9.33;4.45;;;;;;;21.20;20.86;101314.94;1744485;81;20909;-74
2022/03/25 08:10:24;;;;;;;8.85;3.77;;;;;;;21.33;20.67;101315.96;1744508;82;21057;-78
2022/03/25 08:12:56;;;;;;;16.25;3.85;;;;;;;21.41;20.71;101312.58;1744523;81;20890;-76
2022/03/25 08:15:27;;;;;;;9.00;3.60;;;;;;;21.45;20.71;101314.81;1744659;81;21422;-75
2022/03/25 08:18:01;;;;;;;8.95;3.40;;;;;;;21.63;20.07;101314.05;1744293;81;21141;-76
2022/03/25 08:20:41;;;;;;;10.30;3.47;;;;;;;21.48;20.16;101313.70;1744504;81;20965;-76
2022/03/25 08:23:13;;;;;;;7.22;4.62;;;;;;;21.36;20.30;101313.48;1744628;81;20979;-77
2022/03/25 08:28:26;;;;;;;11.35;4.17;;;;;;;21.01;20.67;101302.50;1744591;82;20988;-76
2022/03/25 08:30:54;;;;;;;8.83;3.70;;;;;;;21.08;20.66;101309.44;1745094;81;21600;-76
2022/03/25 08:33:22;;;;;;;6.17;3.42;;;;;;;21.19;20.87;101312.40;1744523;82;20881;-78
2022/03/25 08:35:51;;;;;;;10.88;4.15;;;;;;;21.30;20.66;101310.92;1744593;81;20961;-76
2022/03/25 08:38:20;;;;;;;6.75;3.20;;;;;;;21.40;20.38;101314.88;1744765;81;20932;-77
2022/03/25 08:40:47;;;;;;;4.80;3.80;;;;;;;21.45;20.09;101311.31;1744670;81;20937;-76
2022/03/25 08:43:14;;;;;;;9.15;4.22;;;;;;;21.28;19.89;101308.39;1744457;82;21243;-75
2022/03/25 08:45:42;;;;;;;7.67;4.47;;;;;;;21.27;20.15;101313.36;1744481;82;20929;-76
2022/03/25 08:48:10;;;;;;;8.20;3.67;;;;;;;21.61;20.37;101314.21;1744701;81;20928;-76
2022/03/25 08:50:38;;;;;;;11.22;5.17;;;;;;;22.01;19.73;101306.34;1757250;80;21043;-76
2022/03/25 08:53:06;;;;;;;4.78;4.00;;;;;;;22.13;19.66;101307.80;1757908;81;21367;-77
2022/03/25 08:55:35;;;;;;;10.40;3.55;;;;;;;22.20;19.69;101305.36;1757770;80;21038;-76
2022/03/25 08:58:01;;;;;;;9.55;3.42;;;;;;;22.16;19.42;101303.98;1740998;81;20944;-76
2022/03/25 09:00:29;;;;;;;8.70;3.55;;;;;;;22.04;19.17;101303.86;1757929;80;20928;-78
2022/03/25 09:02:57;;;;;;;10.45;3.17;;;;;;;22.03;19.28;101306.17;1757891;81;20987;-76
2022/03/25 09:05:24;;;;;;;15.45;4.03;;;;;;;22.12;18.99;101298.59;1757978;81;20872;-77
2022/03/25 09:07:52;;;;;;;9.73;3.65;;;;;;;22.13;19.16;101298.95;1757806;81;21851;-76
2022/03/25 09:10:19;;;;;;;10.05;3.98;;;;;;;22.18;19.62;101292.65;1757896;81;21446;-76
2022/03/25 09:12:46;;;;;;;12.00;3.22;;;;;;;22.38;19.17;101293.38;1758570;81;20936;-77
2022/03/25 09:15:14;;;;;;;22.07;4.55;;;;;;;22.45;18.88;101290.43;1758009;80;20939;-76
2022/03/25 09:17:44;;;;;;;7.58;2.92;;;;;;;22.44;19.28;101292.77;1758401;80;20908;-76
2022/03/25 09:20:14;;;;;;;14.25;3.50;;;;;;;22.59;18.87;101293.55;1758261;81;21107;-76
2022/03/25 09:22:41;;;;;;;12.28;3.58;;;;;;;22.76;18.79;101294.03;1757482;81;20876;-75
2022/03/25 09:25:09;;;;;;;13.80;4.03;;;;;;;22.79;17.99;101296.42;1741050;81;20944;-76
2022/03/25 09:27:38;;;;;;;8.95;3.30;;;;;;;22.56;17.97;101291.53;1758034;81;20952;-75
2022/03/25 09:30:06;;;;;;;9.28;2.85;;;;;;;22.40;18.46;101295.91;1758393;81;20919;-75
2022/03/25 09:32:34;;;;;;;8.55;3.40;;;;;;;22.19;18.30;101302.36;1758490;81;21302;-72
2022/03/25 09:35:10;;;;;;;10.45;2.87;;;;;;;21.91;18.57;101298.37;1758196;81;20892;-74
2022/03/25 09:37:41;;;;;;;9.80;3.35;;;;;;;21.78;18.21;101305.06;1757950;81;21022;-76
2022/03/25 09:40:15;;;;;;;11.03;3.60;;;;;;;21.71;18.66;101302.14;1757868;81;20982;-75
2022/03/25 09:42:43;;;;;;;14.65;5.65;;;;;;;21.85;19.08;101304.80;1758006;81;20849;-74
2022/03/25 09:45:13;;;;;;;4.87;3.00;;;;;;;22.13;18.25;101309.64;1758114;80;21943;-75
2022/03/25 09:47:40;;;;;;;13.83;3.62;;;;;;;22.02;18.59;101312.52;1757840;80;20892;-75
2022/03/25 09:50:12;;;;;;;7.50;2.60;;;;;;;22.01;18.74;101310.35;1757976;80;20967;-75
2022/03/25 09:52:41;;;;;;;8.80;2.87;;;;;;;22.02;18.69;101314.69;1757987;81;20928;-74
2022/03/25 09:55:09;;;;;;;9.40;2.98;;;;;;;22.10;18.62;101308.11;1758321;81;20940;-76
2022/03/25 09:57:36;;;;;;;7.80;2.87;;;;;;;22.19;18.42;101311.72;1757861;81;21137;-76
2022/03/25 10:00:06;;;;;;;10.38;3.45;;;;;;;22.35;18.47;101316.41;1758139;80;20892;-76
2022/03/25 10:02:35;;;;;;;15.70;4.28;;;;;;;22.34;18.50;101318.25;1721146;82;21306;-75
2022/03/25 10:05:17;;;;;;;14.25;3.45;;;;;;;22.41;18.39;101313.61;1721706;83;20907;-75
2022/03/25 10:07:55;;;;;;;9.63;3.35;;;;;;;22.45;18.47;101310.48;1721804;83;20899;-75
2022/03/25 10:10:25;;;;;;;13.93;3.27;;;;;;;22.64;18.90;101302.80;1721803;83;20935;-76
2022/03/25 10:13:02;;;;;;;8.88;3.45;;;;;;;22.97;18.32;101305.74;1721961;82;20931;-76
2022/03/25 10:15:31;;;;;;;11.78;3.20;;;;;;;23.05;17.95;101310.33;1721940;83;20919;-76
2022/03/25 10:18:05;;;;;;;7.78;3.25;;;;;;;22.84;17.69;101302.64;1721933;83;20982;-75
2022/03/25 10:20:40;;;;;;;9.83;3.42;;;;;;;22.74;17.90;101307.58;1722266;82;20879;-77
2022/03/25 10:23:17;;;;;;;6.87;3.15;;;;;;;22.77;17.81;101303.75;1722043;82;20982;-75
2022/03/25 10:26:00;;;;;;;14.90;3.52;;;;;;;22.78;18.00;101304.59;1721838;82;21310;-76
2022/03/25 10:28:40;;;;;;;10.13;3.62;;;;;;;22.90;18.44;101302.85;1720976;83;20967;-75
2022/03/25 10:31:13;;;;;;;11.55;4.47;;;;;;;23.10;17.93;101301.32;1721811;83;21030;-75
2022/03/25 10:33:49;;;;;;;10.85;3.67;;;;;;;22.96;18.14;101292.84;1721827;83;20848;-76
2022/03/25 10:36:19;;;;;;;13.45;3.72;;;;;;;22.84;17.80;101288.76;1722259;83;21215;-76
2022/03/25 10:38:54;;;;;;;7.00;3.50;;;;;;;22.71;17.96;101291.00;1722115;83;21480;-77
2022/03/25 10:41:27;;;;;;;10.50;3.52;;;;;;;22.64;18.04;101287.27;1721809;83;20884;-75
2022/03/25 10:43:56;;;;;;;11.03;3.33;;;;;;;22.55;17.71;101290.37;1721755;82;20896;-76
2022/03/25 10:46:39;;;;;;;12.47;3.98;;;;;;;22.49;17.70;101278.95;1721880;83;20895;-77
2022/03/25 10:49:12;;;;;;;5.62;3.00;;;;;;;22.48;17.72;101282.62;1721114;82;21291;-75
2022/03/25 10:51:56;;;;;;;9.83;3.98;;;;;;;22.54;17.95;101286.86;1708834;84;20936;-75
2022/03/25 10:54:24;;;;;;;11.53;3.50;;;;;;;22.58;17.89;101279.86;1708987;84;20971;-74
2022/03/25 10:56:59;;;;;;;12.95;4.12;;;;;;;22.54;17.49;101273.97;1708703;82;20940;-74
2022/03/25 10:59:31;;;;;;;7.67;3.58;;;;;;;22.42;17.65;101269.37;1709039;84;21409;-76
2022/03/25 11:02:01;;;;;;;9.35;3.95;;;;;;;22.43;17.65;101274.20;1708961;84;21167;-76
2022/03/25 11:04:29;;;;;;;10.45;3.58;;;;;;;22.26;17.98;101274.06;1744688;82;21448;-78
2022/03/25 11:06:56;;;;;;;12.40;3.58;;;;;;;21.97;17.89;101266.23;1687508;84;20939;-77
2022/03/25 11:09:27;;;;;;;13.03;3.80;;;;;;;21.85;18.37;101269.59;1708792;84;21434;-75
2022/03/25 11:11:56;;;;;;;14.65;3.35;;;;;;;21.95;17.89;101262.88;1708753;82;21397;-76
2022/03/25 11:14:26;;;;;;;9.58;3.60;;;;;;;22.08;17.71;101274.53;1708837;84;20896;-75
2022/03/25 11:16:59;;;;;;;12.20;3.67;;;;;;;22.08;17.42;101270.02;1709144;84;21429;-75
2022/03/25 11:19:29;;;;;;;19.25;4.83;;;;;;;22.08;17.32;101260.67;1709056;84;20916;-75
2022/03/25 11:22:01;;;;;;;10.72;3.12;;;;;;;22.10;17.84;101254.69;1708950;84;20944;-76
2022/03/25 11:24:46;;;;;;;9.05;3.42;;;;;;;22.10;17.68;101259.20;1708737;82;21505;-74
2022/03/25 11:27:27;;;;;;;11.50;3.85;;;;;;;22.02;17.70;101259.94;1708748;84;21077;-74
2022/03/25 11:30:00;;;;;;;34.25;28.10;;;;;;;21.90;17.22;101262.48;1708871;84;20900;-74
2022/03/25 11:32:27;;;;;;;11.25;3.98;;;;;;;21.83;17.50;101254.71;1744662;81;20912;-77